createdAt,value
2022-12-08T00:01:34.290Z,1.70
2022-12-08T00:04:03.997Z,1.70
2022-12-08T00:06:55.871Z,1.70
2022-12-08T00:09:38.265Z,1.70
2022-12-08T00:12:13.471Z,1.60
2022-12-08T00:14:43.880Z,1.50
2022-12-08T00:17:13.448Z,1.50
2022-12-08T00:19:42.265Z,1.40
2022-12-08T00:22:10.876Z,1.40
2022-12-08T00:24:40.027Z,1.30
2022-12-08T00:27:09.665Z,1.40
2022-12-08T00:29:37.229Z,1.40
2022-12-08T00:32:05.436Z,1.40
2022-12-08T00:34:33.202Z,1.40
2022-12-08T00:37:00.780Z,1.40
2022-12-08T00:39:28.172Z,1.40
2022-12-08T00:42:13.884Z,1.30
2022-12-08T00:44:42.827Z,1.30
2022-12-08T00:47:10.773Z,1.30
2022-12-08T00:49:38.137Z,1.40
2022-12-08T00:52:06.200Z,1.40
2022-12-08T00:54:34.474Z,1.40
2022-12-08T00:57:01.884Z,1.30
2022-12-08T00:59:29.278Z,1.20
2022-12-08T01:01:56.779Z,1.20
2022-12-08T01:04:24.215Z,1.20
2022-12-08T01:06:51.550Z,1.20
2022-12-08T01:09:19.454Z,1.10
2022-12-08T01:11:47.275Z,1.00
2022-12-08T01:17:30.693Z,1.00
2022-12-08T01:19:58.104Z,1.00
2022-12-08T01:22:25.894Z,1.10
2022-12-08T01:29:27.890Z,1.10
2022-12-08T01:31:55.266Z,1.00
2022-12-08T01:34:22.616Z,1.00
2022-12-08T01:36:49.988Z,1.10
2022-12-08T01:39:19.163Z,1.00
2022-12-08T01:41:47.681Z,1.00
2022-12-08T01:44:14.979Z,1.00
2022-12-08T01:46:45.488Z,0.90
2022-12-08T01:49:18.232Z,0.90
2022-12-08T01:52:05.121Z,0.90
2022-12-08T01:54:36.035Z,1.00
2022-12-08T01:57:27.642Z,1.00
2022-12-08T02:00:01.121Z,0.90
2022-12-08T02:02:34.294Z,0.90
2022-12-08T02:05:02.864Z,0.90
2022-12-08T02:07:31.011Z,0.80
2022-12-08T02:09:58.977Z,0.90
2022-12-08T02:12:26.375Z,0.80
2022-12-08T02:14:53.872Z,0.80
2022-12-08T02:17:54.058Z,0.80
2022-12-08T02:20:56.472Z,0.80
2022-12-08T02:23:26.829Z,0.80
2022-12-08T02:26:09.196Z,0.80
2022-12-08T02:29:06.315Z,0.70
2022-12-08T02:31:53.079Z,0.70
2022-12-08T02:34:37.062Z,0.80
2022-12-08T02:37:10.533Z,0.80
2022-12-08T02:39:52.985Z,0.70
2022-12-08T02:42:42.326Z,0.70
2022-12-08T02:45:28.883Z,0.70
2022-12-08T02:47:58.601Z,0.70
2022-12-08T02:50:26.916Z,0.80
2022-12-08T02:52:54.974Z,0.80
2022-12-08T02:55:41.149Z,0.80
2022-12-08T02:58:17.222Z,0.80
2022-12-08T03:01:12.363Z,0.70
2022-12-08T03:03:45.769Z,0.70
2022-12-08T03:06:44.218Z,0.70
2022-12-08T03:09:41.774Z,0.70
2022-12-08T03:12:22.501Z,0.70
2022-12-08T03:14:54.134Z,0.70
2022-12-08T03:17:26.028Z,0.70
2022-12-08T03:19:55.017Z,0.70
2022-12-08T03:22:26.017Z,0.60
2022-12-08T03:24:54.051Z,0.60
2022-12-08T03:27:27.992Z,0.60
2022-12-08T03:29:57.586Z,0.60
2022-12-08T03:32:47.653Z,0.60
2022-12-08T03:35:30.187Z,0.60
2022-12-08T03:38:23.682Z,0.60
2022-12-08T03:41:09.858Z,0.70
2022-12-08T03:43:37.190Z,0.60
2022-12-08T03:46:04.756Z,0.60
2022-12-08T03:48:32.120Z,0.50
2022-12-08T03:50:59.486Z,0.50
2022-12-08T03:53:26.949Z,0.40
2022-12-08T03:55:54.604Z,0.40
2022-12-08T03:58:21.923Z,0.40
2022-12-08T04:00:49.223Z,0.50
2022-12-08T04:03:16.684Z,0.50
2022-12-08T04:05:45.330Z,0.50
2022-12-08T04:08:15.506Z,0.50
2022-12-08T04:10:43.287Z,0.50
2022-12-08T04:13:10.635Z,0.40
2022-12-08T04:15:38.019Z,0.40
2022-12-08T04:18:05.516Z,0.50
2022-12-08T04:20:32.867Z,0.50
2022-12-08T04:23:00.181Z,0.40
2022-12-08T04:25:28.072Z,0.40
2022-12-08T04:27:56.375Z,0.30
2022-12-08T04:30:23.696Z,0.40
2022-12-08T04:32:51.095Z,0.40
2022-12-08T04:35:18.520Z,0.40
2022-12-08T04:37:45.869Z,0.40
2022-12-08T04:40:13.737Z,0.40
2022-12-08T04:42:41.464Z,0.30
2022-12-08T04:45:09.231Z,0.40
2022-12-08T04:47:36.609Z,0.40
2022-12-08T04:50:05.873Z,0.40
2022-12-08T04:52:33.584Z,0.20
2022-12-08T04:55:01.336Z,0.10
2022-12-08T04:57:28.762Z,0.10
2022-12-08T04:59:56.332Z,0.10
2022-12-08T05:02:23.863Z,0.10
2022-12-08T05:04:51.281Z,0.10
2022-12-08T05:07:18.792Z,0.20
2022-12-08T05:09:46.121Z,0.20
2022-12-08T05:12:13.470Z,0.20
2022-12-08T05:14:40.802Z,0.20
2022-12-08T05:17:09.888Z,0.10
2022-12-08T05:19:37.522Z,0.10
2022-12-08T05:22:04.901Z,0.10
2022-12-08T05:24:32.262Z,0.20
2022-12-08T05:26:59.697Z,0.20
2022-12-08T05:29:27.929Z,0.10
2022-12-08T05:31:55.402Z,0.20
2022-12-08T05:34:22.826Z,0.20
2022-12-08T05:36:50.175Z,0.20
2022-12-08T05:39:17.508Z,0.30
2022-12-08T05:41:44.884Z,0.30
2022-12-08T05:44:12.213Z,0.40
2022-12-08T05:46:39.577Z,0.40
2022-12-08T05:49:06.953Z,0.50
2022-12-08T05:51:34.271Z,0.40
2022-12-08T05:54:01.628Z,0.50
2022-12-08T05:56:28.957Z,0.50
2022-12-08T05:58:56.246Z,0.50
2022-12-08T06:01:29.714Z,0.40
2022-12-08T06:03:58.647Z,0.30
2022-12-08T06:06:26.902Z,0.30
2022-12-08T06:08:54.516Z,0.20
2022-12-08T06:11:30.179Z,0.20
2022-12-08T06:13:58.265Z,0.10
2022-12-08T06:16:26.585Z,0.10
2022-12-08T06:18:54.668Z,0.10
2022-12-08T06:21:22.246Z,0.20
2022-12-08T06:23:51.906Z,0.20
2022-12-08T06:26:20.185Z,0.20
2022-12-08T06:28:47.823Z,0.10
2022-12-08T06:31:26.368Z,0.20
2022-12-08T06:33:54.837Z,0.20
2022-12-08T06:36:25.430Z,0.20
2022-12-08T06:38:52.914Z,0.20
2022-12-08T06:41:20.361Z,0.20
2022-12-08T06:43:47.702Z,0.20
2022-12-08T06:46:18.083Z,0.10
2022-12-08T06:48:45.451Z,0.10
2022-12-08T06:51:15.674Z,0.10
2022-12-08T06:53:45.789Z,0.10
2022-12-08T06:56:14.406Z,0.10
2022-12-08T06:58:42.151Z,0.10
2022-12-08T07:01:12.826Z,0.10
2022-12-08T07:03:41.685Z,0.10
2022-12-08T07:06:15.936Z,0.20
2022-12-08T07:08:43.323Z,0.20
2022-12-08T07:11:14.222Z,0.20
2022-12-08T07:13:45.504Z,0.20
2022-12-08T07:16:13.139Z,0.10
2022-12-08T07:18:41.591Z,0.20
2022-12-08T07:21:11.535Z,0.20
2022-12-08T07:23:39.276Z,0.20
2022-12-08T07:26:11.225Z,0.20
2022-12-08T07:28:41.068Z,0.10
2022-12-08T07:31:16.445Z,0.10
2022-12-08T07:33:43.899Z,0.10
2022-12-08T07:36:11.484Z,0.20
2022-12-08T07:38:39.051Z,0.10
2022-12-08T07:41:10.991Z,0.00
2022-12-08T07:43:38.363Z,0.00
2022-12-08T07:46:05.986Z,0.00
2022-12-08T07:48:33.514Z,0.00
2022-12-08T07:51:05.111Z,0.00
2022-12-08T07:53:32.722Z,-0.10
2022-12-08T07:56:00.442Z,0.00
2022-12-08T07:58:27.768Z,0.00
2022-12-08T08:00:55.260Z,0.10
2022-12-08T08:03:22.866Z,0.20
2022-12-08T08:05:50.255Z,0.10
2022-12-08T08:08:18.480Z,0.20
2022-12-08T08:10:47.421Z,0.00
2022-12-08T08:13:14.779Z,0.00
2022-12-08T08:15:42.242Z,0.00
2022-12-08T08:18:09.727Z,0.10
2022-12-08T08:20:37.182Z,0.10
2022-12-08T08:23:04.579Z,0.00
2022-12-08T08:25:31.990Z,0.10
2022-12-08T08:27:59.340Z,0.10
2022-12-08T08:30:26.755Z,0.10
2022-12-08T08:32:54.149Z,0.00
2022-12-08T08:35:21.478Z,0.10
2022-12-08T08:37:49.617Z,0.10
2022-12-08T08:40:18.300Z,0.20
2022-12-08T08:42:45.651Z,0.20
2022-12-08T08:45:13.276Z,0.30
2022-12-08T08:47:40.663Z,0.20
2022-12-08T08:50:08.658Z,0.30
2022-12-08T08:52:36.245Z,0.40
2022-12-08T08:55:03.931Z,0.40
2022-12-08T08:57:31.261Z,0.40
2022-12-08T08:59:58.616Z,0.50
2022-12-08T09:02:26.022Z,0.50
2022-12-08T09:04:53.542Z,0.50
2022-12-08T09:07:20.992Z,0.60
2022-12-08T09:09:48.346Z,0.60
2022-12-08T09:12:15.843Z,0.60
2022-12-08T09:14:43.293Z,0.70
2022-12-08T09:17:10.604Z,0.70
2022-12-08T09:19:37.997Z,0.80
2022-12-08T09:22:05.981Z,0.90
2022-12-08T09:24:33.416Z,0.90
2022-12-08T09:27:00.815Z,1.00
2022-12-08T09:29:34.042Z,1.00
2022-12-08T09:32:03.327Z,1.00
2022-12-08T09:34:31.889Z,1.10
2022-12-08T09:36:59.248Z,1.10
2022-12-08T09:39:26.661Z,1.20
2022-12-08T09:42:05.066Z,1.30
2022-12-08T09:44:44.395Z,1.40
2022-12-08T09:47:35.563Z,1.50
2022-12-08T09:50:22.008Z,1.60
2022-12-08T09:53:16.933Z,1.60
2022-12-08T09:55:53.032Z,1.60
2022-12-08T09:58:48.459Z,1.70
2022-12-08T10:01:16.579Z,1.70
2022-12-08T10:03:44.680Z,1.80
2022-12-08T10:06:30.657Z,1.90
2022-12-08T10:09:26.875Z,1.90
2022-12-08T10:11:59.940Z,2.00
2022-12-08T10:14:38.784Z,2.00
2022-12-08T10:17:15.373Z,2.10
2022-12-08T10:19:43.897Z,2.10
2022-12-08T10:22:22.936Z,2.10
2022-12-08T10:25:00.358Z,2.10
2022-12-08T10:27:28.254Z,2.20
2022-12-08T10:29:55.767Z,2.20
2022-12-08T10:32:28.607Z,2.20
2022-12-08T10:35:02.997Z,2.20
2022-12-08T10:37:30.470Z,2.20
2022-12-08T10:40:17.954Z,2.30
2022-12-08T10:42:52.228Z,2.30
2022-12-08T10:45:31.165Z,2.40
2022-12-08T10:48:00.466Z,2.50
2022-12-08T10:50:41.546Z,2.50
2022-12-08T10:53:08.876Z,2.60
2022-12-08T10:55:46.093Z,2.70
2022-12-08T10:58:35.795Z,2.70
2022-12-08T11:01:18.014Z,2.80
2022-12-08T11:03:49.677Z,2.80
2022-12-08T11:06:24.134Z,2.80
2022-12-08T11:08:57.174Z,2.80
2022-12-08T11:11:38.216Z,2.90
2022-12-08T11:14:14.090Z,3.00
2022-12-08T11:16:43.060Z,3.00
2022-12-08T11:19:16.510Z,3.00
2022-12-08T11:21:44.495Z,3.00
2022-12-08T11:24:14.741Z,3.00
2022-12-08T11:26:51.318Z,3.00
2022-12-08T11:29:19.257Z,3.00
2022-12-08T11:31:53.525Z,3.10
2022-12-08T11:34:30.555Z,3.10
2022-12-08T11:36:59.221Z,3.20
2022-12-08T11:39:32.226Z,3.10
2022-12-08T11:42:02.879Z,3.20
2022-12-08T11:44:31.289Z,3.30
2022-12-08T11:47:05.103Z,3.30
2022-12-08T11:49:41.043Z,3.30
2022-12-08T11:52:32.573Z,3.30
2022-12-08T11:55:06.903Z,3.40
2022-12-08T11:57:34.251Z,3.40
2022-12-08T12:00:02.849Z,3.50
2022-12-08T12:02:36.125Z,3.50
2022-12-08T12:08:55.786Z,3.60
2022-12-08T12:12:10.577Z,3.80
2022-12-08T12:14:55.911Z,4.10
2022-12-08T12:17:44.369Z,4.70
2022-12-08T12:20:35.183Z,4.90
2022-12-08T12:23:19.799Z,5.60
2022-12-08T12:26:02.479Z,6.10
2022-12-08T12:28:59.683Z,6.60
2022-12-08T12:31:30.879Z,6.90
2022-12-08T12:34:06.047Z,6.90
2022-12-08T12:36:52.604Z,6.60
2022-12-08T12:39:29.316Z,5.90
2022-12-08T12:42:04.147Z,5.40
2022-12-08T12:44:34.463Z,5.00
2022-12-08T12:47:04.783Z,4.70
2022-12-08T12:49:43.565Z,4.60
2022-12-08T12:52:16.764Z,4.80
2022-12-08T12:54:50.022Z,5.70
2022-12-08T12:57:20.345Z,7.00
2022-12-08T13:00:10.083Z,7.50
2022-12-08T13:02:48.804Z,7.90
2022-12-08T13:05:36.350Z,8.00
2022-12-08T13:08:21.297Z,8.40
2022-12-08T13:11:02.750Z,8.70
2022-12-08T13:13:30.384Z,8.90
2022-12-08T13:16:18.595Z,9.00
2022-12-08T13:19:04.573Z,9.00
2022-12-08T13:21:36.681Z,9.10
2022-12-08T13:24:24.674Z,9.00
2022-12-08T13:27:03.915Z,8.30
2022-12-08T13:29:32.687Z,7.30
2022-12-08T13:32:02.771Z,6.50
2022-12-08T13:34:57.858Z,6.00
2022-12-08T13:37:55.128Z,5.60
2022-12-08T13:40:30.224Z,5.20
2022-12-08T13:43:04.501Z,4.90
2022-12-08T13:46:18.266Z,4.80
2022-12-08T13:56:05.619Z,4.40
2022-12-08T13:57:33.527Z,4.40
2022-12-08T14:00:15.425Z,4.30
2022-12-08T14:02:48.159Z,4.30
2022-12-08T14:05:20.451Z,4.20
2022-12-08T14:07:55.035Z,4.20
2022-12-08T14:10:26.076Z,4.20
2022-12-08T14:13:00.701Z,4.20
2022-12-08T14:15:37.286Z,4.30
2022-12-08T14:18:06.954Z,4.20
2022-12-08T14:20:57.958Z,4.20
2022-12-08T14:23:23.372Z,4.20
2022-12-08T14:25:50.812Z,4.20
2022-12-08T14:28:18.392Z,4.20
2022-12-08T14:30:48.283Z,4.20
2022-12-08T14:33:19.467Z,4.20
2022-12-08T14:35:51.288Z,4.20
2022-12-08T14:38:20.718Z,4.10
2022-12-08T14:40:59.143Z,4.10
2022-12-08T14:43:27.860Z,4.10
2022-12-08T14:46:01.499Z,4.10
2022-12-08T14:48:33.644Z,4.10
2022-12-08T14:51:04.076Z,4.10
2022-12-08T14:53:46.334Z,4.10
2022-12-08T14:56:19.979Z,4.10
2022-12-08T14:58:49.968Z,4.00
2022-12-08T15:01:23.376Z,4.00
2022-12-08T15:03:51.797Z,4.00
2022-12-08T15:06:22.269Z,4.00
2022-12-08T15:08:58.935Z,3.90
2022-12-08T15:11:35.451Z,3.90
2022-12-08T15:14:03.175Z,3.90
2022-12-08T15:16:39.151Z,3.90
2022-12-08T15:19:21.454Z,3.90
2022-12-08T15:21:48.839Z,3.90
2022-12-08T15:24:16.941Z,3.90
2022-12-08T15:26:47.567Z,3.80
2022-12-08T15:29:26.776Z,3.80
2022-12-08T15:31:56.846Z,3.70
2022-12-08T15:34:24.767Z,3.70
2022-12-08T15:36:54.403Z,3.70
2022-12-08T15:39:29.932Z,3.70
2022-12-08T15:41:57.492Z,3.70
2022-12-08T15:44:24.908Z,3.70
2022-12-08T15:46:52.856Z,3.60
2022-12-08T15:49:22.967Z,3.60
2022-12-08T15:51:51.282Z,3.50
2022-12-08T15:54:19.061Z,3.50
2022-12-08T15:57:17.830Z,3.40
2022-12-08T15:59:37.846Z,3.40
2022-12-08T16:02:05.316Z,3.40
2022-12-08T16:05:25.667Z,3.30
2022-12-08T16:07:29.697Z,3.30
2022-12-08T16:09:57.284Z,3.30
2022-12-08T16:13:47.982Z,3.20
2022-12-08T16:15:57.145Z,3.20
2022-12-08T16:18:31.487Z,3.10
2022-12-08T16:21:13.899Z,3.10
2022-12-08T16:23:46.884Z,3.10
2022-12-08T16:26:28.625Z,3.10
2022-12-08T16:29:04.375Z,3.10
2022-12-08T16:31:32.282Z,3.00
2022-12-08T16:33:59.667Z,2.90
2022-12-08T16:36:26.833Z,2.90
2022-12-08T16:38:54.063Z,2.90
2022-12-08T16:41:39.880Z,2.90
2022-12-08T16:44:07.290Z,2.80
2022-12-08T16:46:35.968Z,2.80
2022-12-08T16:49:04.402Z,2.80
2022-12-08T16:51:31.878Z,2.80
2022-12-08T16:53:59.276Z,2.70
2022-12-08T16:56:32.647Z,2.70
2022-12-08T16:59:02.011Z,2.70
2022-12-08T17:01:29.941Z,2.70
2022-12-08T17:06:44.974Z,2.60
2022-12-08T17:09:12.429Z,2.60
2022-12-08T17:11:43.413Z,2.60
2022-12-08T17:14:13.194Z,2.60
2022-12-08T17:16:41.062Z,2.50
2022-12-08T17:19:09.109Z,2.60
2022-12-08T17:21:36.731Z,2.50
2022-12-08T17:24:05.332Z,2.50
2022-12-08T17:26:32.854Z,2.40
2022-12-08T17:29:02.582Z,2.40
2022-12-08T17:31:32.766Z,2.40
2022-12-08T17:34:09.522Z,2.30
2022-12-08T17:36:37.191Z,2.30
2022-12-08T17:39:05.104Z,2.50
2022-12-08T17:41:32.552Z,2.60
2022-12-08T17:43:59.914Z,2.60
2022-12-08T17:46:27.400Z,2.60
2022-12-08T17:48:55.079Z,2.50
2022-12-08T17:51:22.594Z,2.50
2022-12-08T17:53:49.985Z,2.40
2022-12-08T17:56:20.536Z,2.40
2022-12-08T17:58:54.313Z,2.40
2022-12-08T18:01:23.824Z,2.30
2022-12-08T18:03:51.598Z,2.30
2022-12-08T18:06:19.182Z,2.30
2022-12-08T18:08:46.843Z,2.30
2022-12-08T18:11:19.346Z,2.30
2022-12-08T18:13:50.717Z,2.20
2022-12-08T18:16:20.353Z,2.20
2022-12-08T18:18:48.042Z,2.10
2022-12-08T18:21:23.366Z,2.10
2022-12-08T18:23:51.848Z,2.10
2022-12-08T18:26:19.744Z,2.10
2022-12-08T18:28:47.223Z,2.10
2022-12-08T18:31:17.373Z,2.10
2022-12-08T18:33:45.948Z,2.10
2022-12-08T18:36:16.424Z,2.10
2022-12-08T18:38:44.481Z,2.10
2022-12-08T18:41:15.403Z,2.10
2022-12-08T18:43:42.812Z,2.20
2022-12-08T18:46:12.566Z,2.20
2022-12-08T18:48:46.450Z,2.10
2022-12-08T18:51:16.649Z,2.10
2022-12-08T18:53:44.739Z,2.10
2022-12-08T18:56:25.991Z,2.10
2022-12-08T18:58:56.335Z,2.10
2022-12-08T19:01:27.451Z,2.10
2022-12-08T19:04:19.967Z,2.10
2022-12-08T19:06:44.347Z,2.00
2022-12-08T19:09:13.145Z,2.00
2022-12-08T19:11:40.980Z,1.90
2022-12-08T19:14:08.905Z,1.90
2022-12-08T19:16:37.441Z,1.90
2022-12-08T19:19:05.614Z,1.90
2022-12-08T19:21:33.398Z,1.80
2022-12-08T19:24:01.533Z,1.90
2022-12-08T19:26:29.167Z,1.80
2022-12-08T19:28:57.253Z,1.90
2022-12-08T19:31:24.740Z,1.80
2022-12-08T19:33:52.307Z,1.80
2022-12-08T19:36:22.232Z,1.80
2022-12-08T19:39:08.280Z,1.80
2022-12-08T19:41:55.600Z,1.80
2022-12-08T19:44:34.230Z,1.80
2022-12-08T19:47:02.201Z,1.70
2022-12-08T19:49:29.781Z,1.80
2022-12-08T19:51:57.313Z,1.80
2022-12-08T19:54:24.841Z,1.70
2022-12-08T19:56:52.312Z,1.70
2022-12-08T19:59:20.404Z,1.60
2022-12-08T20:01:51.359Z,1.60
2022-12-08T20:04:19.485Z,1.60
2022-12-08T20:06:47.081Z,1.60
2022-12-08T20:09:14.883Z,1.60
2022-12-08T20:11:42.652Z,1.50
2022-12-08T20:14:10.090Z,1.50
2022-12-08T20:16:37.663Z,1.50
2022-12-08T20:19:05.054Z,1.50
2022-12-08T20:21:32.416Z,1.50
2022-12-08T20:23:59.794Z,1.50
2022-12-08T20:26:27.749Z,1.50
2022-12-08T20:28:55.233Z,1.50
2022-12-08T20:31:26.626Z,1.50
2022-12-08T20:33:54.971Z,1.60
2022-12-08T20:36:23.270Z,1.60
2022-12-08T20:38:52.096Z,1.70
2022-12-08T20:41:20.660Z,1.60
2022-12-08T20:43:48.815Z,1.60
2022-12-08T20:46:17.497Z,1.60
2022-12-08T20:48:45.245Z,1.50
2022-12-08T20:51:17.758Z,1.50
2022-12-08T20:53:45.715Z,1.60
2022-12-08T20:56:18.953Z,1.50
2022-12-08T20:58:47.012Z,1.40
2022-12-08T21:01:17.109Z,1.50
2022-12-08T21:03:45.463Z,1.50
2022-12-08T21:06:13.461Z,1.50
2022-12-08T21:08:42.342Z,1.50
2022-12-08T21:11:10.653Z,1.50
2022-12-08T21:13:39.148Z,1.50
2022-12-08T21:21:05.269Z,1.40
2022-12-08T21:23:34.045Z,1.40
2022-12-08T21:26:01.939Z,1.40
2022-12-08T21:28:29.530Z,1.40
2022-12-08T21:30:56.983Z,1.40
2022-12-08T21:33:24.634Z,1.30
2022-12-08T21:36:03.832Z,1.30
2022-12-08T21:38:31.535Z,1.20
2022-12-08T21:41:06.015Z,1.20
2022-12-08T21:43:33.618Z,1.20
2022-12-08T21:46:01.679Z,1.20
2022-12-08T21:48:30.495Z,1.20
2022-12-08T21:51:04.290Z,1.20
2022-12-08T21:53:32.019Z,1.20
2022-12-08T21:55:59.584Z,1.20
2022-12-08T21:58:27.209Z,1.20
2022-12-08T22:00:54.784Z,1.20
2022-12-08T22:03:22.513Z,1.20
2022-12-08T22:05:50.231Z,1.20
2022-12-08T22:08:17.800Z,1.20
2022-12-08T22:10:48.924Z,1.20
2022-12-08T22:13:16.242Z,1.10
2022-12-08T22:15:44.706Z,1.10
2022-12-08T22:18:12.337Z,1.10
2022-12-08T22:25:13.680Z,1.10
2022-12-08T22:27:41.568Z,1.00
2022-12-08T22:30:10.312Z,1.00
2022-12-08T22:32:38.553Z,1.00
2022-12-08T22:35:06.559Z,1.00
2022-12-08T22:37:34.203Z,1.00
2022-12-08T22:40:01.639Z,1.00
2022-12-08T22:42:29.705Z,0.90
2022-12-08T22:44:57.183Z,0.90
2022-12-08T22:47:24.654Z,0.90
2022-12-08T22:49:52.074Z,0.90
2022-12-08T22:52:19.884Z,0.90
2022-12-08T22:59:10.859Z,0.90
2022-12-08T23:01:38.397Z,0.90
2022-12-08T23:04:06.010Z,0.90
2022-12-08T23:06:33.782Z,0.90
2022-12-08T23:09:01.369Z,0.90
2022-12-08T23:11:30.698Z,0.90
2022-12-08T23:14:02.612Z,0.80
2022-12-08T23:16:30.458Z,0.80
2022-12-08T23:18:59.177Z,0.90
2022-12-08T23:21:26.762Z,0.90
2022-12-08T23:23:54.259Z,0.90
2022-12-08T23:26:24.817Z,0.90
2022-12-08T23:28:52.726Z,0.90
2022-12-08T23:31:20.933Z,0.80
2022-12-08T23:33:48.929Z,0.80
2022-12-08T23:36:17.837Z,0.80
2022-12-08T23:38:45.662Z,0.80
2022-12-08T23:41:14.936Z,0.80
2022-12-08T23:43:48.049Z,0.80
2022-12-08T23:46:17.253Z,0.80
2022-12-08T23:48:45.165Z,0.80
2022-12-08T23:51:13.127Z,0.80
2022-12-08T23:53:41.089Z,0.80
2022-12-08T23:56:12.196Z,0.80
2022-12-08T23:58:40.156Z,0.80
